createdAt,value
2018-05-15T00:02:35.472Z,69.66
2018-05-15T00:17:36.807Z,70.21
2018-05-15T00:32:35.042Z,70.16
2018-05-15T00:47:34.151Z,69.82
2018-05-15T01:02:37.797Z,70.47
2018-05-15T01:17:34.504Z,70.58
2018-05-15T01:32:36.935Z,70.54
2018-05-15T01:47:36.879Z,70.34
2018-05-15T02:32:35.359Z,69.55
2018-05-15T02:47:35.730Z,69.40
2018-05-15T03:02:37.182Z,69.94
2018-05-15T03:17:37.271Z,71.06
2018-05-15T03:32:34.779Z,71.39
2018-05-15T03:47:34.567Z,71.26
2018-05-15T04:02:48.455Z,71.06
2018-05-15T04:17:34.335Z,70.35
2018-05-15T04:32:34.671Z,69.87
2018-05-15T04:47:34.655Z,69.80
2018-05-15T05:02:34.995Z,69.89
2018-05-15T05:17:34.903Z,66.48
2018-05-15T05:32:35.214Z,63.11
2018-05-15T05:47:35.832Z,58.68
2018-05-15T06:02:37.166Z,55.48
2018-05-15T06:17:35.658Z,52.18
2018-05-15T06:32:34.062Z,49.99
2018-05-15T06:47:36.610Z,49.50
2018-05-15T07:02:34.615Z,47.59
2018-05-15T07:17:34.583Z,44.12
2018-05-15T07:32:34.821Z,43.03
2018-05-15T07:47:34.806Z,42.95
2018-05-15T08:02:36.742Z,42.09
2018-05-15T08:17:34.877Z,41.46
2018-05-15T08:32:35.685Z,40.38
2018-05-15T08:47:35.121Z,41.07
2018-05-15T09:02:35.106Z,38.65
2018-05-15T09:17:37.571Z,40.25
2018-05-15T09:32:33.814Z,43.68
2018-05-15T09:47:36.975Z,44.92
2018-05-15T10:02:35.848Z,45.04
2018-05-15T10:17:35.286Z,44.89
2018-05-15T10:32:34.714Z,41.78
2018-05-15T10:47:34.154Z,40.47
2018-05-15T11:02:34.626Z,41.78
2018-05-15T11:17:34.583Z,38.83
2018-05-15T11:32:35.642Z,36.79
2018-05-15T11:47:35.169Z,36.10
2018-05-15T12:02:34.980Z,35.56
2018-05-15T12:17:34.892Z,34.71
2018-05-15T12:32:36.419Z,35.16
2018-05-15T12:47:35.276Z,34.95
2018-05-15T13:02:35.256Z,34.51
2018-05-15T13:17:35.218Z,36.10
2018-05-15T13:32:34.614Z,36.58
2018-05-15T13:47:34.574Z,36.08
2018-05-15T14:02:34.523Z,36.22
2018-05-15T14:17:34.270Z,45.75
2018-05-15T14:32:34.887Z,51.87
2018-05-15T14:47:36.906Z,49.63
2018-05-15T15:02:34.659Z,50.43
2018-05-15T15:17:34.880Z,54.55
2018-05-15T15:32:35.183Z,58.20
2018-05-15T15:47:35.798Z,59.62
2018-05-15T16:02:37.158Z,60.57
2018-05-15T16:17:36.014Z,59.87
2018-05-15T16:47:38.766Z,56.44
2018-05-15T17:02:35.246Z,59.49
2018-05-15T17:17:34.381Z,60.98
2018-05-15T17:32:35.011Z,63.93
2018-05-15T17:47:33.564Z,64.22
2018-05-15T18:02:34.607Z,64.54
2018-05-15T18:17:36.563Z,63.98
2018-05-15T18:32:35.201Z,64.69
2018-05-15T18:47:37.945Z,63.84
2018-05-15T19:02:43.095Z,66.20
2018-05-15T19:17:35.576Z,68.12
2018-05-15T19:32:39.299Z,70.32
2018-05-15T19:47:36.971Z,69.20
2018-05-15T20:32:36.638Z,72.27
2018-05-15T20:47:36.986Z,72.40
2018-05-15T21:02:37.895Z,73.65
